Spencerville, Oklahoma
Current Conditions -  °F | °C
As of 6:35 PM on Sunday 21 Dec 2014 (Local Time) from KHHW Reporting Station
Overcast Overcast  
Wind Chill: 44°   Ceiling: 1700
Heat Index: 49°   Visibility: 10mi
Dew Point: 43°   Wind: 13mph
Humidity: 78%   Direction: 150°SSE
Pressure: 29.87"   Gusts: NA
Location:  34.14°N, 95.36°W
Report Text: KHHW 220035Z AUTO 15011KT 10SM OVC017 10/06 A2987 RMK AO2 T00960060
Loading
Personal Weather Stations






























Interactive Weather Map New forecast layout! Learn more

10-Day Weather Forecast

Advertisements
Track Severe Weather on mobile